createdAt,value
2022-08-07T00:00:28.922Z,16.20
2022-08-07T00:01:43.895Z,17.70
2022-08-07T00:02:44.543Z,16.00
2022-08-07T00:03:28.802Z,18.10
2022-08-07T00:04:28.935Z,15.20
2022-08-07T00:05:28.785Z,15.60
2022-08-07T00:06:32.921Z,15.50
2022-08-07T00:07:29.076Z,15.30
2022-08-07T00:08:28.772Z,17.20
2022-08-07T00:09:35.519Z,17.00
2022-08-07T00:10:29.853Z,16.00
2022-08-07T00:11:29.994Z,18.20
2022-08-07T00:12:28.696Z,15.40
2022-08-07T00:13:28.703Z,17.10
2022-08-07T00:14:30.218Z,15.10
2022-08-07T00:15:37.967Z,17.90
2022-08-07T00:16:28.660Z,16.30
2022-08-07T00:17:28.970Z,16.70
2022-08-07T00:18:28.638Z,17.30
2022-08-07T00:19:34.096Z,15.60
2022-08-07T00:20:29.961Z,18.00
2022-08-07T00:21:56.775Z,16.00
2022-08-07T00:22:35.237Z,15.80
2022-08-07T00:23:28.574Z,16.70
2022-08-07T00:24:28.529Z,16.80
2022-08-07T00:25:28.534Z,18.20
2022-08-07T00:26:49.113Z,15.60
2022-08-07T00:27:28.908Z,18.70
2022-08-07T00:28:33.610Z,17.40
2022-08-07T00:29:31.298Z,16.40
2022-08-07T00:30:28.701Z,18.40
2022-08-07T00:31:38.417Z,18.40
2022-08-07T00:32:28.667Z,17.10
2022-08-07T00:33:28.397Z,15.80
2022-08-07T00:34:28.417Z,17.40
2022-08-07T00:35:29.966Z,17.20
2022-08-07T00:36:28.362Z,15.20
2022-08-07T00:37:41.411Z,17.60
2022-08-07T00:38:31.343Z,17.20
2022-08-07T00:39:28.356Z,19.10
2022-08-07T00:40:36.145Z,19.20
2022-08-07T00:41:28.293Z,18.70
2022-08-07T00:42:29.085Z,17.30
2022-08-07T00:44:00.888Z,18.60
2022-08-07T00:44:28.303Z,18.60
2022-08-07T00:45:28.243Z,18.90
2022-08-07T00:46:28.227Z,17.90
2022-08-07T00:48:09.324Z,19.10
2022-08-07T00:48:30.841Z,18.80
2022-08-07T00:50:21.167Z,18.80
2022-08-07T00:50:51.574Z,20.40
2022-08-07T00:51:28.155Z,19.30
2022-08-07T00:52:28.187Z,18.90
2022-08-07T00:53:38.652Z,20.30
2022-08-07T00:54:28.121Z,20.70
2022-08-07T00:56:02.424Z,18.80
2022-08-07T00:56:30.234Z,20.00
2022-08-07T00:57:28.395Z,19.20
2022-08-07T00:58:28.107Z,18.30
2022-08-07T00:59:35.515Z,18.40
2022-08-07T01:00:28.038Z,19.60
2022-08-07T01:01:28.040Z,18.60
2022-08-07T01:02:29.578Z,18.50
2022-08-07T01:03:54.689Z,19.20
2022-08-07T01:04:27.991Z,18.80
2022-08-07T01:05:27.974Z,20.50
2022-08-07T01:06:27.978Z,19.10
2022-08-07T01:07:29.241Z,18.60
2022-08-07T01:08:28.011Z,19.60
2022-08-07T01:10:04.492Z,19.50
2022-08-07T01:10:27.917Z,19.60
2022-08-07T01:12:09.585Z,20.30
2022-08-07T01:12:34.985Z,19.80
2022-08-07T01:13:27.858Z,21.10
2022-08-07T01:14:28.743Z,21.90
2022-08-07T01:15:35.674Z,20.10
2022-08-07T01:16:30.004Z,20.60
2022-08-07T01:17:28.000Z,21.80
2022-08-07T01:18:27.800Z,19.50
2022-08-07T01:19:27.800Z,21.20
2022-08-07T01:20:30.839Z,19.70
2022-08-07T01:21:28.532Z,17.90
2022-08-07T01:22:29.149Z,19.70
2022-08-07T01:23:36.824Z,19.20
2022-08-07T01:24:27.727Z,17.60
2022-08-07T01:25:53.974Z,21.70
2022-08-07T01:26:27.699Z,18.10
2022-08-07T01:27:32.407Z,18.90
2022-08-07T01:28:27.676Z,18.00
2022-08-07T01:29:31.453Z,20.00
2022-08-07T01:30:27.667Z,18.30
2022-08-07T01:31:27.613Z,21.00
2022-08-07T01:32:27.622Z,16.60
2022-08-07T01:33:30.051Z,17.40
2022-08-07T01:34:30.800Z,18.80
2022-08-07T01:35:52.860Z,17.50
2022-08-07T01:36:33.334Z,16.10
2022-08-07T01:37:27.867Z,17.00
2022-08-07T01:38:29.149Z,15.10
2022-08-07T01:39:39.678Z,13.90
2022-08-07T01:40:27.519Z,16.70
2022-08-07T01:41:27.484Z,15.40
2022-08-07T01:42:39.906Z,14.70
2022-08-07T01:43:27.502Z,17.00
2022-08-07T01:44:27.447Z,14.80
2022-08-07T01:45:36.977Z,16.30
2022-08-07T01:46:27.424Z,13.90
2022-08-07T01:48:20.647Z,12.30
2022-08-07T01:48:34.242Z,13.50
2022-08-07T01:49:27.376Z,13.30
2022-08-07T01:50:28.829Z,14.50
2022-08-07T01:52:01.498Z,13.20
2022-08-07T01:52:27.373Z,13.70
2022-08-07T01:54:08.583Z,13.60
2022-08-07T01:54:32.820Z,14.20
2022-08-07T01:55:27.296Z,14.50
2022-08-07T01:56:28.911Z,12.80
2022-08-07T01:57:27.266Z,12.40
2022-08-07T01:58:33.056Z,12.80
2022-08-07T01:59:31.064Z,12.10
2022-08-07T02:00:28.988Z,12.60
2022-08-07T02:01:59.708Z,10.80
2022-08-07T02:03:12.223Z,12.80
2022-08-07T02:03:42.627Z,12.30
2022-08-07T02:04:27.217Z,13.30
2022-08-07T02:05:48.380Z,11.20
2022-08-07T02:06:31.197Z,11.70
2022-08-07T02:07:36.215Z,12.50
2022-08-07T02:08:27.156Z,11.20
2022-08-07T02:09:33.769Z,10.70
2022-08-07T02:10:27.095Z,10.80
2022-08-07T02:12:03.391Z,10.60
2022-08-07T02:12:29.223Z,9.90
2022-08-07T02:13:56.490Z,10.40
2022-08-07T02:14:35.888Z,10.20
2022-08-07T02:15:27.935Z,12.00
2022-08-07T02:16:28.556Z,9.50
2022-08-07T02:17:27.867Z,11.90
2022-08-07T02:18:26.993Z,11.10
2022-08-07T02:20:04.273Z,8.70
2022-08-07T02:20:26.966Z,10.80
2022-08-07T02:21:26.979Z,9.50
2022-08-07T02:22:26.941Z,9.10
2022-08-07T02:23:26.998Z,9.90
2022-08-07T02:24:29.437Z,10.20
2022-08-07T02:26:10.964Z,9.10
2022-08-07T02:26:36.812Z,9.70
2022-08-07T02:27:27.286Z,10.30
2022-08-07T02:28:27.150Z,9.90
2022-08-07T02:29:26.864Z,10.10
2022-08-07T02:30:26.869Z,11.10
2022-08-07T02:31:29.214Z,11.90
2022-08-07T02:32:30.071Z,10.50
2022-08-07T02:33:32.731Z,11.70
2022-08-07T02:34:26.800Z,12.40
2022-08-07T02:36:28.699Z,10.90
2022-08-07T02:36:36.813Z,10.90
2022-08-07T02:37:27.014Z,10.00
2022-08-07T02:38:28.246Z,10.70
2022-08-07T02:39:43.290Z,10.30
2022-08-07T02:40:30.659Z,11.30
2022-08-07T02:41:33.180Z,11.20
2022-08-07T02:42:26.665Z,10.20
2022-08-07T02:43:26.959Z,10.50
2022-08-07T02:44:26.863Z,10.70
2022-08-07T02:45:58.981Z,10.30
2022-08-07T02:46:26.685Z,10.40
2022-08-07T02:47:26.604Z,10.00
2022-08-07T02:48:26.586Z,14.80
2022-08-07T02:49:29.180Z,11.30
2022-08-07T02:50:26.600Z,13.40
2022-08-07T02:51:41.948Z,11.90
2022-08-07T02:52:31.256Z,13.90
2022-08-07T02:53:27.582Z,11.30
2022-08-07T02:54:26.497Z,14.40
2022-08-07T02:55:27.847Z,10.60
2022-08-07T02:56:27.960Z,12.00
2022-08-07T02:57:30.837Z,10.60
2022-08-07T02:58:27.125Z,12.20
2022-08-07T02:59:27.451Z,12.60
2022-08-07T03:00:26.414Z,12.10
2022-08-07T03:01:35.714Z,10.10
2022-08-07T03:02:26.444Z,11.60
2022-08-07T03:03:26.415Z,11.80
2022-08-07T03:04:26.371Z,11.60
2022-08-07T03:05:29.118Z,11.60
2022-08-07T03:06:34.605Z,10.90
2022-08-07T03:07:58.887Z,14.20
2022-08-07T03:08:26.785Z,13.40
2022-08-07T03:09:43.328Z,11.20
2022-08-07T03:10:26.294Z,10.90
2022-08-07T03:11:26.298Z,12.00
2022-08-07T03:12:31.170Z,12.30
2022-08-07T03:13:26.256Z,10.70
2022-08-07T03:14:26.230Z,12.10
2022-08-07T03:15:30.277Z,12.80
2022-08-07T03:16:27.787Z,11.30
2022-08-07T03:17:26.483Z,12.10
2022-08-07T03:18:34.575Z,11.70
2022-08-07T03:19:28.930Z,10.60
2022-08-07T03:20:26.157Z,11.90
2022-08-07T03:21:26.151Z,15.50
2022-08-07T03:22:29.570Z,11.90
2022-08-07T03:23:33.653Z,12.40
2022-08-07T03:24:27.806Z,12.00
2022-08-07T03:25:26.092Z,12.10
2022-08-07T03:26:26.112Z,13.20
2022-08-07T03:27:30.337Z,12.80
2022-08-07T03:28:38.082Z,12.20
2022-08-07T03:29:27.597Z,12.40
2022-08-07T03:30:26.017Z,14.60
2022-08-07T03:31:42.116Z,14.10
2022-08-07T03:32:26.038Z,12.70
2022-08-07T03:33:25.978Z,11.70
2022-08-07T03:34:27.168Z,15.20
2022-08-07T03:35:26.365Z,16.60
2022-08-07T03:36:25.985Z,12.20
2022-08-07T03:37:27.774Z,12.00
2022-08-07T03:38:29.764Z,14.30
2022-08-07T03:39:46.054Z,11.90
2022-08-07T03:40:30.922Z,12.10
2022-08-07T03:41:42.388Z,14.00
2022-08-07T03:42:25.865Z,13.80
2022-08-07T03:43:26.510Z,13.10
2022-08-07T03:44:34.205Z,12.60
2022-08-07T03:45:30.862Z,12.50
2022-08-07T03:46:26.898Z,13.10
2022-08-07T03:47:25.993Z,13.70
2022-08-07T03:48:25.865Z,13.30
2022-08-07T03:49:25.890Z,14.90
2022-08-07T03:50:25.782Z,13.10
2022-08-07T03:51:25.768Z,13.10
2022-08-07T03:52:26.435Z,12.30
2022-08-07T03:54:00.607Z,13.10
2022-08-07T03:54:54.102Z,13.00
2022-08-07T03:55:52.946Z,12.50
2022-08-07T03:56:33.553Z,13.30
2022-08-07T03:58:33.205Z,14.60
2022-08-07T03:59:08.326Z,18.90
2022-08-07T03:59:25.640Z,19.30
2022-08-07T04:00:29.234Z,16.90
2022-08-07T04:01:25.729Z,16.50
2022-08-07T04:02:25.597Z,14.10
2022-08-07T04:03:25.571Z,16.90
2022-08-07T04:04:25.578Z,13.40
2022-08-07T04:05:39.599Z,12.90
2022-08-07T04:06:37.854Z,12.40
2022-08-07T04:07:25.529Z,11.90
2022-08-07T04:08:25.519Z,13.10
2022-08-07T04:09:25.498Z,13.10
2022-08-07T04:10:25.486Z,14.50
2022-08-07T04:12:15.555Z,11.80
2022-08-07T04:12:32.629Z,12.80
2022-08-07T04:13:27.587Z,13.90
2022-08-07T04:14:38.762Z,14.30
2022-08-07T04:15:25.441Z,15.00
2022-08-07T04:16:30.911Z,13.90
2022-08-07T04:18:56.671Z,14.90
2022-08-07T04:19:14.829Z,14.30
2022-08-07T04:19:25.409Z,12.40
2022-08-07T04:20:25.461Z,15.50
2022-08-07T04:21:25.338Z,14.90
2022-08-07T04:22:27.327Z,14.90
2022-08-07T04:23:25.311Z,15.20
2022-08-07T04:24:30.566Z,13.80
2022-08-07T04:25:25.314Z,15.90
2022-08-07T04:26:28.542Z,14.90
2022-08-07T04:27:26.517Z,14.10
2022-08-07T04:28:25.301Z,13.60
2022-08-07T04:29:25.225Z,14.20
2022-08-07T04:30:39.208Z,14.50
2022-08-07T04:31:38.863Z,13.50
2022-08-07T04:32:27.363Z,12.20
2022-08-07T04:33:25.234Z,11.60
2022-08-07T04:34:27.546Z,12.80
2022-08-07T04:35:25.176Z,14.40
2022-08-07T04:36:26.161Z,14.20
2022-08-07T04:37:25.186Z,14.80
2022-08-07T04:38:25.143Z,14.60
2022-08-07T04:39:26.215Z,13.80
2022-08-07T04:40:29.651Z,12.40
2022-08-07T04:41:25.069Z,13.20
2022-08-07T04:42:25.046Z,11.90
2022-08-07T04:43:53.436Z,13.50
2022-08-07T04:44:25.031Z,14.30
2022-08-07T04:45:52.246Z,12.80
2022-08-07T04:46:25.954Z,13.60
2022-08-07T04:47:58.324Z,12.10
2022-08-07T04:48:24.982Z,11.40
2022-08-07T04:49:25.634Z,11.60
2022-08-07T04:50:24.957Z,13.20
2022-08-07T04:51:27.256Z,15.60
2022-08-07T04:52:25.208Z,12.30
2022-08-07T04:53:40.096Z,12.80
2022-08-07T04:54:30.053Z,12.00
2022-08-07T04:58:13.924Z,16.80
2022-08-07T04:59:09.144Z,14.40
2022-08-07T05:00:14.347Z,13.50
2022-08-07T05:00:30.805Z,13.90
2022-08-07T05:00:47.370Z,15.40
2022-08-07T05:01:47.375Z,14.60
2022-08-07T05:02:47.758Z,17.00
2022-08-07T05:04:07.064Z,14.50
2022-08-07T05:04:50.303Z,13.50
2022-08-07T05:05:53.130Z,12.50
2022-08-07T05:06:51.669Z,11.00
2022-08-07T05:07:48.576Z,11.80
2022-08-07T05:09:01.063Z,11.40
2022-08-07T05:09:47.205Z,11.10
2022-08-07T05:10:47.198Z,13.10
2022-08-07T05:11:58.667Z,13.70
2022-08-07T05:12:52.904Z,10.70
2022-08-07T05:14:54.446Z,13.10
2022-08-07T05:15:04.906Z,16.00
2022-08-07T05:15:47.117Z,11.90
2022-08-07T05:16:47.120Z,11.70
2022-08-07T05:17:51.965Z,11.10
2022-08-07T05:18:47.088Z,12.60
2022-08-07T05:19:47.103Z,11.90
2022-08-07T05:20:47.053Z,11.40
2022-08-07T05:21:59.393Z,10.30
2022-08-07T05:22:47.036Z,10.30
2022-08-07T05:23:47.054Z,11.80
2022-08-07T05:24:47.001Z,9.00
2022-08-07T05:26:12.847Z,10.40
2022-08-07T05:26:47.199Z,10.20
2022-08-07T05:28:02.642Z,10.60
2022-08-07T05:28:49.928Z,8.90
2022-08-07T05:29:51.247Z,10.20
2022-08-07T05:30:47.221Z,9.90
2022-08-07T05:31:47.451Z,9.20
2022-08-07T05:32:46.898Z,11.70
2022-08-07T05:34:01.171Z,10.70
2022-08-07T05:34:46.877Z,10.60
2022-08-07T05:35:46.871Z,11.00
2022-08-07T05:36:48.904Z,9.90
2022-08-07T05:37:46.854Z,10.20
2022-08-07T05:38:59.732Z,10.30
2022-08-07T05:40:17.949Z,9.50
2022-08-07T05:40:51.432Z,9.10
2022-08-07T05:41:46.833Z,11.00
2022-08-07T05:42:56.172Z,8.70
2022-08-07T05:44:08.399Z,9.40
2022-08-07T05:44:52.794Z,9.20
2022-08-07T05:45:48.327Z,9.10
2022-08-07T05:46:46.739Z,8.90
2022-08-07T05:48:01.776Z,9.20
2022-08-07T05:48:58.198Z,9.80
2022-08-07T05:49:46.667Z,9.50
2022-08-07T05:50:46.644Z,9.30
2022-08-07T05:51:46.920Z,11.20
2022-08-07T05:52:46.839Z,9.80
2022-08-07T05:54:13.677Z,9.90
2022-08-07T05:54:53.391Z,9.10
2022-08-07T05:56:03.029Z,10.20
2022-08-07T05:56:46.608Z,8.80
2022-08-07T05:57:46.594Z,10.00
2022-08-07T05:58:52.565Z,12.90
2022-08-07T05:59:57.376Z,9.50
2022-08-07T06:00:46.509Z,10.20
2022-08-07T06:01:46.595Z,9.90
2022-08-07T06:02:46.500Z,10.50
2022-08-07T06:03:57.310Z,9.50
2022-08-07T06:04:46.465Z,9.00
2022-08-07T06:05:48.846Z,10.30
2022-08-07T06:06:47.883Z,10.70
2022-08-07T06:08:14.775Z,10.10
2022-08-07T06:08:46.713Z,11.60
2022-08-07T06:10:05.182Z,11.10
2022-08-07T06:10:46.386Z,12.90
2022-08-07T06:11:46.375Z,12.10
2022-08-07T06:12:46.369Z,11.20
2022-08-07T06:14:11.921Z,11.00
2022-08-07T06:14:49.583Z,11.00
2022-08-07T06:15:46.312Z,11.20
2022-08-07T06:16:50.185Z,9.60
2022-08-07T06:17:53.527Z,10.50
2022-08-07T06:18:51.941Z,11.30
2022-08-07T06:19:52.437Z,11.00
2022-08-07T06:20:51.116Z,11.20
2022-08-07T06:22:23.914Z,13.00
2022-08-07T06:23:02.445Z,15.00
2022-08-07T06:24:46.309Z,13.20
2022-08-07T06:25:01.102Z,11.20
2022-08-07T06:25:54.675Z,13.10
2022-08-07T06:26:46.164Z,12.20
2022-08-07T06:28:01.641Z,12.90
2022-08-07T06:28:46.202Z,12.00
2022-08-07T06:29:46.120Z,12.30
2022-08-07T06:30:46.213Z,14.10
2022-08-07T06:31:49.981Z,12.60
2022-08-07T06:32:46.087Z,13.40
2022-08-07T06:33:46.169Z,14.00
2022-08-07T06:34:46.079Z,14.30
2022-08-07T06:35:48.119Z,13.60
2022-08-07T06:36:46.031Z,14.20
2022-08-07T06:37:46.204Z,13.50
2022-08-07T06:38:51.268Z,13.50
2022-08-07T06:40:17.237Z,12.20
2022-08-07T06:40:46.246Z,13.90
2022-08-07T06:42:00.429Z,14.00
2022-08-07T06:42:46.667Z,12.00
2022-08-07T06:43:46.205Z,15.60
2022-08-07T06:44:45.919Z,12.20
2022-08-07T06:45:45.908Z,14.40
2022-08-07T06:46:53.775Z,21.80
2022-08-07T06:47:57.647Z,13.50
2022-08-07T06:48:46.036Z,16.40
2022-08-07T06:49:52.377Z,16.00
2022-08-07T06:50:47.907Z,12.90
2022-08-07T06:51:49.864Z,13.30
2022-08-07T06:52:45.807Z,15.90
2022-08-07T06:55:29.403Z,14.00
2022-08-07T06:56:00.510Z,15.50
2022-08-07T06:57:06.781Z,11.80
2022-08-07T06:57:11.655Z,13.20
2022-08-07T06:58:11.664Z,11.70
2022-08-07T07:00:15.034Z,11.90
2022-08-07T07:00:22.926Z,13.10
2022-08-07T07:01:11.669Z,11.40
2022-08-07T07:02:11.700Z,12.10
2022-08-07T07:03:13.844Z,12.80
2022-08-07T07:04:28.279Z,10.60
2022-08-07T07:05:12.666Z,10.90
2022-08-07T07:06:11.683Z,10.50
2022-08-07T07:07:19.234Z,10.50
2022-08-07T07:08:12.446Z,10.50
2022-08-07T07:09:11.529Z,9.20
2022-08-07T07:10:11.508Z,10.70
2022-08-07T07:11:14.490Z,10.10
2022-08-07T07:12:18.090Z,12.70
2022-08-07T07:13:11.441Z,11.90
2022-08-07T07:14:11.422Z,10.30
2022-08-07T07:15:23.603Z,9.90
2022-08-07T07:16:11.402Z,10.70
2022-08-07T07:17:16.102Z,11.10
2022-08-07T07:18:11.382Z,10.40
2022-08-07T07:19:55.776Z,9.70
2022-08-07T07:20:11.344Z,9.40
2022-08-07T07:21:13.483Z,9.20
2022-08-07T07:22:33.798Z,9.50
2022-08-07T07:24:06.670Z,9.00
2022-08-07T07:24:15.955Z,10.00
2022-08-07T07:26:32.564Z,9.00
2022-08-07T07:26:41.384Z,33.50
2022-08-07T07:27:11.249Z,25.30
2022-08-07T07:28:42.726Z,11.60
2022-08-07T07:29:55.911Z,13.80
2022-08-07T07:30:12.432Z,10.20
2022-08-07T07:31:11.210Z,10.30
2022-08-07T07:32:11.216Z,9.00
2022-08-07T07:33:11.395Z,21.60
2022-08-07T07:34:11.174Z,12.20
2022-08-07T07:35:11.148Z,11.00
2022-08-07T07:36:13.133Z,19.40
2022-08-07T07:37:21.564Z,11.80
2022-08-07T07:38:11.458Z,9.50
2022-08-07T07:39:11.124Z,9.50
2022-08-07T07:40:15.070Z,11.00
2022-08-07T07:41:11.066Z,9.70
2022-08-07T07:42:14.056Z,9.10
2022-08-07T07:43:15.476Z,9.30
2022-08-07T07:44:17.353Z,9.00
2022-08-07T07:45:11.011Z,8.80
2022-08-07T07:46:37.490Z,8.80
2022-08-07T07:47:17.510Z,8.80
2022-08-07T07:48:11.192Z,8.50
2022-08-07T07:50:35.668Z,8.50
2022-08-07T07:50:43.851Z,10.70
2022-08-07T07:51:10.931Z,9.00
2022-08-07T07:52:10.923Z,9.10
2022-08-07T07:53:20.535Z,8.90
2022-08-07T07:54:10.914Z,8.90
2022-08-07T07:55:11.556Z,8.70
2022-08-07T07:56:10.861Z,9.20
2022-08-07T07:57:11.167Z,8.30
2022-08-07T07:58:10.974Z,8.80
2022-08-07T07:59:10.843Z,8.80
2022-08-07T08:00:10.812Z,8.60
2022-08-07T08:02:01.812Z,8.20
2022-08-07T08:02:11.111Z,7.80
2022-08-07T08:03:16.950Z,8.40
2022-08-07T08:04:11.985Z,8.90
2022-08-07T08:05:11.499Z,8.00
2022-08-07T08:06:11.579Z,8.70
2022-08-07T08:07:10.753Z,7.70
2022-08-07T08:08:32.394Z,8.40
2022-08-07T08:09:10.707Z,9.60
2022-08-07T08:10:10.678Z,8.30
2022-08-07T08:11:16.191Z,9.30
2022-08-07T08:12:10.666Z,8.80
2022-08-07T08:13:15.437Z,8.60
2022-08-07T08:14:10.645Z,8.50
2022-08-07T08:15:10.613Z,9.90
2022-08-07T08:16:12.748Z,8.90
2022-08-07T08:17:55.497Z,9.40
2022-08-07T08:18:17.585Z,9.20
2022-08-07T08:20:16.401Z,9.20
2022-08-07T08:20:31.933Z,10.60
2022-08-07T08:21:10.532Z,9.40
2022-08-07T08:22:10.716Z,11.60
2022-08-07T08:23:10.493Z,12.60
2022-08-07T08:24:35.041Z,11.70
2022-08-07T08:25:24.777Z,13.30
2022-08-07T08:26:10.464Z,10.30
2022-08-07T08:27:10.448Z,11.30
2022-08-07T08:28:10.433Z,12.00
2022-08-07T08:29:10.420Z,10.20
2022-08-07T08:30:14.149Z,10.10
2022-08-07T08:31:14.692Z,10.60
2022-08-07T08:32:18.587Z,10.90
2022-08-07T08:33:16.241Z,9.40
2022-08-07T08:34:10.380Z,11.30
2022-08-07T08:35:10.373Z,12.00
2022-08-07T08:36:10.355Z,21.80
2022-08-07T08:37:59.865Z,15.70
2022-08-07T08:38:10.384Z,13.30
2022-08-07T08:39:10.324Z,30.40
2022-08-07T08:40:12.274Z,11.50
2022-08-07T08:41:10.287Z,13.70
2022-08-07T08:42:10.243Z,12.00
2022-08-07T08:43:10.233Z,12.00
2022-08-07T08:44:10.227Z,11.60
2022-08-07T08:45:13.386Z,10.10
2022-08-07T08:46:10.193Z,10.30
2022-08-07T08:47:11.269Z,10.20
2022-08-07T08:48:10.663Z,9.50
2022-08-07T08:49:10.183Z,9.80
2022-08-07T08:50:10.825Z,10.00
2022-08-07T08:51:14.345Z,9.50
2022-08-07T08:52:13.677Z,9.50
2022-08-07T08:53:10.103Z,10.00
2022-08-07T08:54:10.087Z,9.20
2022-08-07T08:55:10.072Z,9.40
2022-08-07T08:56:10.092Z,10.30
2022-08-07T08:57:10.041Z,11.90
2022-08-07T08:58:13.198Z,11.50
2022-08-07T08:59:14.019Z,11.90
2022-08-07T09:00:10.018Z,16.00
2022-08-07T09:01:15.821Z,19.70
2022-08-07T09:02:10.023Z,13.70
2022-08-07T09:03:09.957Z,14.10
2022-08-07T09:04:11.214Z,11.70
2022-08-07T09:05:09.942Z,12.30
2022-08-07T09:06:11.465Z,12.10
2022-08-07T09:07:11.252Z,11.40
2022-08-07T09:08:09.923Z,12.30
2022-08-07T09:09:20.781Z,12.80
2022-08-07T09:10:09.873Z,9.70
2022-08-07T09:11:09.868Z,11.40
2022-08-07T09:12:30.778Z,9.60
2022-08-07T09:13:09.830Z,11.70
2022-08-07T09:14:09.845Z,8.90
2022-08-07T09:16:23.195Z,10.70
2022-08-07T09:16:31.433Z,8.80
2022-08-07T09:17:09.776Z,9.00
2022-08-07T09:18:16.795Z,9.30
2022-08-07T09:19:51.752Z,9.30
2022-08-07T09:20:34.751Z,9.20
2022-08-07T09:21:13.843Z,10.10
2022-08-07T09:24:28.762Z,9.50
2022-08-07T09:25:00.309Z,9.50
2022-08-07T09:25:17.359Z,8.80
2022-08-07T09:26:04.387Z,10.10
2022-08-07T09:27:04.581Z,9.90
2022-08-07T09:28:03.623Z,9.70
2022-08-07T09:30:03.470Z,9.90
2022-08-07T09:30:12.373Z,11.00
2022-08-07T09:31:04.391Z,10.20
2022-08-07T09:32:03.567Z,9.40
2022-08-07T09:33:05.540Z,9.20
2022-08-07T09:34:03.567Z,9.50
2022-08-07T09:35:04.735Z,9.20
2022-08-07T09:37:13.334Z,9.10
2022-08-07T09:37:18.763Z,9.60
2022-08-07T09:38:18.752Z,10.50
2022-08-07T09:39:54.696Z,9.20
2022-08-07T09:40:18.800Z,10.50
2022-08-07T09:41:18.730Z,9.40
2022-08-07T09:42:23.206Z,9.70
2022-08-07T09:43:18.755Z,9.10
2022-08-07T09:44:30.043Z,9.70
2022-08-07T09:47:23.775Z,9.10
2022-08-07T09:47:59.132Z,9.10
2022-08-07T09:48:12.152Z,9.00
2022-08-07T09:49:02.255Z,8.60
2022-08-07T09:50:19.225Z,8.80
2022-08-07T09:50:43.675Z,8.50
2022-08-07T09:52:10.034Z,8.40
2022-08-07T09:52:43.606Z,8.70
2022-08-07T09:53:55.231Z,7.80
2022-08-07T09:54:43.606Z,8.80
2022-08-07T09:56:04.741Z,7.50
2022-08-07T09:56:43.556Z,8.90
2022-08-07T09:57:46.715Z,8.10
2022-08-07T09:58:43.526Z,8.20
2022-08-07T10:00:00.842Z,8.20
2022-08-07T10:00:43.505Z,7.60
2022-08-07T10:01:51.762Z,7.70
2022-08-07T10:02:55.136Z,8.40
2022-08-07T10:04:03.862Z,8.70
2022-08-07T10:04:47.605Z,8.40
2022-08-07T10:05:59.240Z,8.60
2022-08-07T10:06:49.058Z,8.00
2022-08-07T10:07:53.665Z,8.60
2022-08-07T10:08:43.434Z,7.60
2022-08-07T10:10:01.131Z,7.80
2022-08-07T10:11:08.799Z,7.50
2022-08-07T10:12:15.411Z,7.50
2022-08-07T10:12:52.748Z,7.80
2022-08-07T10:14:00.789Z,8.80
2022-08-07T10:14:43.342Z,8.80
2022-08-07T10:15:44.446Z,7.90
2022-08-07T10:16:43.281Z,8.20
2022-08-07T10:18:02.500Z,8.50
2022-08-07T10:18:43.264Z,8.30
2022-08-07T10:19:43.260Z,7.80
2022-08-07T10:20:44.316Z,7.30
2022-08-07T10:22:13.972Z,7.40
2022-08-07T10:22:43.275Z,7.90
2022-08-07T10:24:06.303Z,7.60
2022-08-07T10:24:43.179Z,8.20
2022-08-07T10:25:43.668Z,7.40
2022-08-07T10:26:44.120Z,6.90
2022-08-07T10:27:45.774Z,7.60
2022-08-07T10:28:49.446Z,7.60
2022-08-07T10:29:45.953Z,7.20
2022-08-07T10:30:43.143Z,8.40
2022-08-07T10:31:45.188Z,7.70
2022-08-07T10:32:53.286Z,8.00
2022-08-07T10:34:14.390Z,9.80
2022-08-07T10:34:45.276Z,13.10
2022-08-07T10:35:56.744Z,8.10
2022-08-07T10:36:43.053Z,7.20
2022-08-07T10:38:00.106Z,7.40
2022-08-07T10:38:48.793Z,14.50
2022-08-07T10:40:03.322Z,7.30
2022-08-07T10:40:42.979Z,6.80
2022-08-07T10:41:47.070Z,9.20
2022-08-07T10:42:43.334Z,7.40
2022-08-07T10:43:42.917Z,8.90
2022-08-07T10:44:45.267Z,7.70
2022-08-07T10:45:44.626Z,9.30
2022-08-07T10:46:42.884Z,6.60
2022-08-07T10:47:53.765Z,6.60
2022-08-07T10:48:44.051Z,7.20
2022-08-07T10:49:49.660Z,6.80
2022-08-07T10:50:49.808Z,11.00
2022-08-07T10:52:01.455Z,7.50
2022-08-07T10:52:42.829Z,13.20
2022-08-07T10:53:44.843Z,9.40
2022-08-07T10:54:42.781Z,7.30
2022-08-07T10:55:42.770Z,6.80
2022-08-07T10:56:42.760Z,7.10
2022-08-07T10:57:42.757Z,6.60
2022-08-07T10:58:42.724Z,6.80
2022-08-07T10:59:47.414Z,6.30
2022-08-07T11:00:43.202Z,6.10
2022-08-07T11:01:51.427Z,7.10
2022-08-07T11:02:49.163Z,7.50
2022-08-07T11:03:55.089Z,7.00
2022-08-07T11:04:42.644Z,5.70
2022-08-07T11:05:50.562Z,8.80
2022-08-07T11:06:42.651Z,8.90
2022-08-07T11:07:59.565Z,8.70
2022-08-07T11:08:42.599Z,6.60
2022-08-07T11:10:08.004Z,6.80
2022-08-07T11:10:42.599Z,6.60
2022-08-07T11:11:42.777Z,6.80
2022-08-07T11:12:43.398Z,6.90
2022-08-07T11:14:45.486Z,6.10
2022-08-07T11:15:04.242Z,6.10
2022-08-07T11:15:42.499Z,6.70
2022-08-07T11:16:42.517Z,6.00
2022-08-07T11:17:43.344Z,6.50
2022-08-07T11:18:42.470Z,6.00
2022-08-07T11:19:42.460Z,6.10
2022-08-07T11:20:42.788Z,7.20
2022-08-07T11:21:43.050Z,5.80
2022-08-07T11:22:46.301Z,6.90
2022-08-07T11:23:42.382Z,6.90
2022-08-07T11:24:45.512Z,6.90
2022-08-07T11:25:49.742Z,6.60
2022-08-07T11:26:43.429Z,6.40
2022-08-07T11:28:01.772Z,6.30
2022-08-07T11:28:42.420Z,6.10
2022-08-07T11:29:48.372Z,6.60
2022-08-07T11:30:42.493Z,6.90
2022-08-07T11:31:42.277Z,6.30
2022-08-07T11:32:42.260Z,6.30
2022-08-07T11:33:53.580Z,6.40
2022-08-07T11:34:42.481Z,6.50
2022-08-07T11:35:58.905Z,6.30
2022-08-07T11:36:42.234Z,7.10
2022-08-07T11:37:58.217Z,6.20
2022-08-07T11:38:42.196Z,6.10
2022-08-07T11:40:00.805Z,6.20
2022-08-07T11:40:42.174Z,5.90
2022-08-07T11:42:01.472Z,6.50
2022-08-07T11:42:42.140Z,5.90
2022-08-07T11:44:11.018Z,6.20
2022-08-07T11:44:52.626Z,6.30
2022-08-07T11:45:50.232Z,7.40
2022-08-07T11:46:42.105Z,6.60
2022-08-07T11:47:56.438Z,7.10
2022-08-07T11:48:53.988Z,7.80
2022-08-07T11:50:25.282Z,7.50
2022-08-07T11:50:44.723Z,7.20
2022-08-07T11:51:44.550Z,7.20
2022-08-07T11:52:42.030Z,6.90
2022-08-07T11:53:43.313Z,7.40
2022-08-07T11:54:41.984Z,7.10
2022-08-07T11:56:11.928Z,7.30
2022-08-07T11:56:41.997Z,7.50
2022-08-07T11:58:00.293Z,6.80
2022-08-07T11:58:41.934Z,6.70
2022-08-07T12:00:12.373Z,7.50
2022-08-07T12:00:41.895Z,6.50
2022-08-07T12:01:59.911Z,6.50
2022-08-07T12:02:41.893Z,6.60
2022-08-07T12:03:45.370Z,6.80
2022-08-07T12:04:41.842Z,6.60
2022-08-07T12:05:49.110Z,6.90
2022-08-07T12:06:50.906Z,6.80
2022-08-07T12:07:42.074Z,6.70
2022-08-07T12:08:42.531Z,6.70
2022-08-07T12:09:41.765Z,6.90
2022-08-07T12:10:42.149Z,6.70
2022-08-07T12:11:43.208Z,7.00
2022-08-07T12:12:41.757Z,6.50
2022-08-07T12:13:47.501Z,6.90
2022-08-07T12:14:41.730Z,6.60
2022-08-07T12:16:06.048Z,6.20
2022-08-07T12:16:41.682Z,6.90
2022-08-07T12:17:59.468Z,6.40
2022-08-07T12:18:45.552Z,6.40
2022-08-07T12:20:05.390Z,6.70
2022-08-07T12:20:41.629Z,6.40
2022-08-07T12:22:36.125Z,6.40
2022-08-07T12:22:55.956Z,6.20
2022-08-07T12:24:07.217Z,6.00
2022-08-07T12:24:41.821Z,6.20
2022-08-07T12:26:22.363Z,6.10
2022-08-07T12:26:46.618Z,6.20
2022-08-07T12:28:09.615Z,6.50
2022-08-07T12:28:45.149Z,6.00
2022-08-07T12:29:41.500Z,6.00
2022-08-07T12:30:46.996Z,7.40
2022-08-07T12:32:01.817Z,8.60
2022-08-07T12:32:41.461Z,6.30
2022-08-07T12:34:00.895Z,6.00
2022-08-07T12:34:42.094Z,5.80
2022-08-07T12:35:41.472Z,6.10
2022-08-07T12:36:42.216Z,7.20
2022-08-07T12:38:11.711Z,6.40
2022-08-07T12:38:47.094Z,6.30
2022-08-07T12:39:42.341Z,6.10
2022-08-07T12:40:47.523Z,5.80
2022-08-07T12:41:49.360Z,6.10
2022-08-07T12:42:41.341Z,6.50
2022-08-07T12:44:03.151Z,6.10
2022-08-07T12:44:44.847Z,6.20
2022-08-07T12:45:41.281Z,6.50
2022-08-07T12:46:41.274Z,6.30
2022-08-07T12:47:41.279Z,6.30
2022-08-07T12:48:52.388Z,6.60
2022-08-07T12:49:51.462Z,5.80
2022-08-07T12:50:48.866Z,5.90
2022-08-07T12:51:51.316Z,6.30
2022-08-07T12:52:41.208Z,6.30
2022-08-07T12:54:02.861Z,6.40
2022-08-07T12:54:42.226Z,5.90
2022-08-07T12:56:02.150Z,5.70
2022-08-07T12:56:41.145Z,6.40
2022-08-07T12:58:00.527Z,6.40
2022-08-07T12:58:42.973Z,6.20
2022-08-07T12:59:54.920Z,5.60
2022-08-07T13:00:49.645Z,5.60
2022-08-07T13:01:41.094Z,5.70
2022-08-07T13:02:41.070Z,5.80
2022-08-07T13:03:54.878Z,5.90
2022-08-07T13:04:49.150Z,6.00
2022-08-07T13:06:02.483Z,6.30